Time;durP1;ratioP1;P1;durP2;ratioP2;P2;SDS_P1;SDS_P2;PMS_P1;PMS_P2;Temp;Humidity;BMP_temperature;BMP_pressure;BME280_temperature;BME280_humidity;BME280_pressure;Samples;Min_cycle;Max_cycle;Signal;HPM_P1;HPM_P2
2022/02/01 00:00:56;;;;;;;36.20;11.90;;;;;;;1.56;91.62;100231.31;5070828;28;20032;-73
2022/02/01 00:03:23;;;;;;;27.50;12.10;;;;;;;1.58;91.72;100247.84;5071445;28;20044;-73
2022/02/01 00:06:00;;;;;;;28.77;10.68;;;;;;;1.66;91.51;100245.44;5055607;28;20395;-73
2022/02/01 00:13:40;;;;;;;27.88;10.18;;;;;;;1.67;90.80;100240.28;5073659;28;20131;-74
2022/02/01 00:19:24;;;;;;;33.33;10.68;;;;;;;1.64;90.72;100237.59;5028601;28;20068;-73
2022/02/01 00:35:33;;;;;;;35.27;11.07;;;;;;;1.40;91.70;100252.59;5073275;28;20112;-74
2022/02/01 00:38:12;;;;;;;36.50;10.00;;;;;;;1.33;91.96;100259.31;5073708;28;20043;-74
2022/02/01 00:40:38;;;;;;;35.42;11.13;;;;;;;1.28;92.36;100263.53;5054781;28;20040;-74
2022/02/01 00:43:06;;;;;;;36.53;10.07;;;;;;;1.23;92.35;100258.22;5073572;28;20151;-73
2022/02/01 00:45:32;;;;;;;37.63;10.33;;;;;;;1.23;92.59;100267.72;5069293;28;20044;-74
2022/02/01 00:47:57;;;;;;;37.03;9.80;;;;;;;1.23;92.72;100267.72;5073493;28;20044;-74
2022/02/01 00:50:22;;;;;;;36.47;10.93;;;;;;;1.23;92.82;100266.03;5073297;28;20471;-74
2022/02/01 00:52:48;;;;;;;27.73;9.52;;;;;;;1.21;92.62;100259.91;5073333;28;20461;-74
2022/02/01 00:55:13;;;;;;;28.77;9.20;;;;;;;1.23;93.21;100273.81;5071909;28;20085;-74
2022/02/01 00:57:39;;;;;;;26.30;8.85;;;;;;;1.28;92.79;100277.44;5072875;28;20442;-74
2022/02/01 01:00:07;;;;;;;37.53;9.47;;;;;;;1.29;92.97;100279.19;5073033;28;20500;-74
2022/02/01 01:02:32;;;;;;;31.45;9.93;;;;;;;1.30;92.73;100280.94;5073021;28;20123;-74
2022/02/01 01:04:58;;;;;;;32.92;9.07;;;;;;;1.31;93.03;100287.03;5072118;28;20111;-74
2022/02/01 01:07:23;;;;;;;36.58;9.35;;;;;;;1.30;92.58;100293.06;5072981;28;20507;-74
2022/02/01 01:09:49;;;;;;;31.52;8.50;;;;;;;1.36;92.30;100276.72;5069075;28;20086;-74
2022/02/01 01:12:16;;;;;;;32.07;9.60;;;;;;;1.36;92.31;100277.59;5072973;28;20071;-74
2022/02/01 01:45:02;;;;;;;30.13;9.67;;;;;;;1.31;92.59;100294.84;5071730;28;20039;-74
2022/02/01 01:55:38;;;;;;;31.92;9.30;;;;;;;1.28;92.70;100295.63;5071661;28;20101;-73
2022/02/01 01:58:04;;;;;;;45.33;10.65;;;;;;;1.29;92.71;100299.97;5068999;28;20528;-74
2022/02/01 02:03:14;;;;;;;30.17;9.23;;;;;;;1.24;92.38;100296.38;5069327;28;20044;-74
2022/02/01 02:05:39;;;;;;;32.17;10.05;;;;;;;1.29;92.81;100279.19;5053288;28;20032;-73
2022/02/01 02:08:05;;;;;;;34.70;9.45;;;;;;;1.29;92.87;100279.19;5071763;28;20044;-74
2022/02/01 02:10:36;;;;;;;36.90;11.30;;;;;;;1.28;93.11;100287.81;5071092;28;20047;-74
2022/02/01 02:15:55;;;;;;;32.60;9.55;;;;;;;1.41;92.90;100288.13;5068302;28;20051;-74
2022/02/01 02:18:20;;;;;;;46.30;11.68;;;;;;;1.41;92.56;100298.53;5071190;28;20040;-74
2022/02/01 02:20:50;;;;;;;42.22;11.57;;;;;;;1.47;93.02;100302.19;5053732;28;20066;-74
2022/02/01 02:23:15;;;;;;;43.78;12.18;;;;;;;1.53;92.30;100293.69;5071580;28;20047;-74
2022/02/01 02:25:40;;;;;;;40.65;13.57;;;;;;;1.53;92.38;100309.28;5053215;28;20392;-74
2022/02/01 02:28:09;;;;;;;37.23;12.83;;;;;;;1.52;92.77;100299.72;5053949;28;20048;-74
2022/02/01 02:30:34;;;;;;;26.75;11.00;;;;;;;1.57;92.18;100298.09;5071286;28;20036;-74
2022/02/01 02:33:12;;;;;;;27.27;12.57;;;;;;;1.61;91.88;100306.88;5071272;28;20403;-74
2022/02/01 02:35:53;;;;;;;38.28;12.82;;;;;;;1.61;92.22;100307.75;5067386;28;20032;-74
2022/02/01 02:38:28;;;;;;;31.92;13.45;;;;;;;1.64;92.30;100309.56;5071002;28;20040;-74
2022/02/01 02:46:03;;;;;;;34.53;14.30;;;;;;;1.73;91.97;100328.91;5068827;28;20085;-74
2022/02/01 02:48:28;;;;;;;34.17;15.13;;;;;;;1.78;91.96;100335.94;5053261;28;20032;-74
2022/02/01 02:50:54;;;;;;;36.05;14.18;;;;;;;1.79;91.45;100333.38;5071225;28;20024;-75
2022/02/01 02:53:19;;;;;;;31.50;13.37;;;;;;;1.87;90.52;100330.97;5071280;28;20067;-74
2022/02/01 02:55:45;;;;;;;32.22;14.30;;;;;;;1.87;90.96;100339.66;5070415;28;20044;-74
2022/02/01 02:58:11;;;;;;;34.00;14.68;;;;;;;1.96;90.84;100341.63;5071190;28;20048;-74
2022/02/01 03:00:36;;;;;;;33.58;13.23;;;;;;;1.98;90.13;100348.63;5070878;28;20040;-74
2022/02/01 03:03:01;;;;;;;29.00;12.20;;;;;;;1.97;90.56;100338.19;5070686;28;20033;-74
2022/02/01 03:05:27;;;;;;;33.72;13.38;;;;;;;2.00;90.62;100337.38;5070704;28;20036;-74
2022/02/01 03:07:53;;;;;;;32.42;13.10;;;;;;;2.00;90.06;100335.66;5071010;28;20033;-74
2022/02/01 03:10:18;;;;;;;27.30;12.65;;;;;;;1.94;90.21;100332.91;5067143;28;20471;-74
2022/02/01 03:13:29;;;;;;;27.65;12.07;;;;;;;1.94;90.76;100344.19;5070706;28;20070;-74
2022/02/01 03:20:44;;;;;;;29.05;12.82;;;;;;;2.12;90.06;100349.00;5067565;28;20043;-74
2022/02/01 03:23:09;;;;;;;28.23;13.65;;;;;;;2.11;90.00;100344.59;5072226;28;20400;-74
2022/02/01 03:25:35;;;;;;;31.10;12.95;;;;;;;2.19;89.33;100344.78;5070753;28;20040;-74
2022/02/01 03:28:00;;;;;;;23.50;12.73;;;;;;;2.15;89.13;100337.78;5061439;28;20044;-75
2022/02/01 03:30:26;;;;;;;36.17;14.50;;;;;;;2.13;89.42;100345.53;5048876;28;20095;-75
2022/02/01 03:32:51;;;;;;;30.05;13.50;;;;;;;2.18;89.46;100343.06;5070841;28;20037;-74
2022/02/01 03:35:17;;;;;;;37.15;14.65;;;;;;;2.15;89.18;100348.19;5070261;28;20033;-74
2022/02/01 03:37:43;;;;;;;29.40;13.75;;;;;;;2.12;89.53;100345.47;5070669;28;20036;-74
2022/02/01 03:40:12;;;;;;;28.17;15.88;;;;;;;2.19;89.45;100350.88;5066812;28;20082;-75
2022/02/01 03:42:37;;;;;;;30.98;13.40;;;;;;;2.23;89.09;100340.53;5052573;28;20029;-76
2022/02/01 03:45:03;;;;;;;32.13;14.73;;;;;;;2.19;89.20;100337.84;5070077;28;20063;-76
2022/02/01 03:47:31;;;;;;;28.70;14.18;;;;;;;2.23;89.09;100343.13;5071348;28;20107;-75
2022/02/01 03:49:58;;;;;;;29.10;15.27;;;;;;;2.21;89.15;100347.44;5070057;28;20115;-75
2022/02/01 03:52:25;;;;;;;29.50;14.43;;;;;;;2.22;89.14;100334.44;5070521;28;20127;-75
2022/02/01 03:54:50;;;;;;;29.48;13.77;;;;;;;2.16;88.70;100337.78;5068388;28;20571;-75
2022/02/01 03:57:15;;;;;;;31.38;14.93;;;;;;;2.19;89.58;100330.06;5070678;28;20115;-75
2022/02/01 03:59:44;;;;;;;30.55;13.95;;;;;;;2.16;88.77;100329.97;5070261;28;20044;-75
2022/02/01 04:02:10;;;;;;;33.63;16.60;;;;;;;2.10;88.24;100340.25;5070542;28;20036;-76
2022/02/01 04:04:36;;;;;;;34.28;15.43;;;;;;;2.14;88.23;100336.00;5069841;28;20051;-75
2022/02/01 04:07:03;;;;;;;32.17;15.02;;;;;;;2.19;88.11;100344.78;5069232;28;20048;-75
2022/02/01 04:09:29;;;;;;;31.55;14.50;;;;;;;2.18;88.22;100327.44;5062968;28;20541;-76
2022/02/01 04:11:59;;;;;;;30.88;14.73;;;;;;;2.25;87.71;100341.47;5070417;28;20078;-75
2022/02/01 04:14:28;;;;;;;35.35;14.13;;;;;;;2.22;87.95;100344.00;5053027;28;20500;-76
2022/02/01 04:16:54;;;;;;;30.92;14.32;;;;;;;2.26;88.10;100348.44;5073776;28;20139;-75
2022/02/01 04:19:20;;;;;;;27.92;14.20;;;;;;;2.33;88.15;100343.44;5070970;28;20048;-75
2022/02/01 04:21:58;;;;;;;30.80;15.25;;;;;;;2.30;87.06;100332.91;5073582;28;20142;-75
2022/02/01 04:24:23;;;;;;;33.50;17.90;;;;;;;2.29;87.75;100345.91;5070411;28;20441;-75
2022/02/01 04:26:49;;;;;;;36.67;15.85;;;;;;;2.38;87.49;100340.91;5073656;28;20119;-74
2022/02/01 04:29:14;;;;;;;39.88;15.13;;;;;;;2.32;86.24;100340.78;5073613;28;20071;-75
2022/02/01 04:31:40;;;;;;;31.55;14.63;;;;;;;2.37;85.69;100344.38;5055736;28;20135;-75
2022/02/01 04:34:05;;;;;;;32.78;15.20;;;;;;;2.31;85.90;100354.66;5069589;28;20119;-75
2022/02/01 04:36:30;;;;;;;32.03;14.85;;;;;;;2.29;85.96;100362.41;5073499;28;20032;-75
2022/02/01 04:38:57;;;;;;;25.67;13.32;;;;;;;2.23;85.84;100359.66;5054864;28;20354;-75
2022/02/01 04:41:26;;;;;;;29.20;13.90;;;;;;;2.24;85.79;100356.22;5073624;28;20052;-75
2022/02/01 04:43:52;;;;;;;22.98;12.23;;;;;;;2.24;85.75;100352.72;5069894;28;20044;-75
2022/02/01 04:46:19;;;;;;;24.10;12.10;;;;;;;2.24;85.63;100343.19;5073075;28;20068;-75
2022/02/01 04:48:44;;;;;;;29.63;13.15;;;;;;;2.27;85.77;100343.25;5073421;28;20047;-75
2022/02/01 04:51:10;;;;;;;30.40;14.02;;;;;;;2.25;85.82;100344.06;5073409;28;20044;-75
2022/02/01 04:53:35;;;;;;;29.70;14.95;;;;;;;2.28;85.78;100351.94;5054278;28;20064;-75
2022/02/01 04:56:00;;;;;;;24.33;14.27;;;;;;;2.24;86.52;100343.19;5072714;28;20036;-76
2022/02/01 04:58:26;;;;;;;29.77;13.80;;;;;;;2.27;86.12;100338.03;5055341;28;20035;-75
2022/02/01 05:00:53;;;;;;;24.95;13.77;;;;;;;2.24;86.52;100337.09;5077419;28;20033;-75
2022/02/01 05:03:20;;;;;;;24.27;13.00;;;;;;;2.26;86.13;100331.09;5073038;28;20044;-76
2022/02/01 05:05:45;;;;;;;31.83;15.23;;;;;;;2.19;86.58;100330.06;5057448;28;20032;-75
2022/02/01 05:08:12;;;;;;;29.73;14.63;;;;;;;2.23;86.18;100335.31;5055086;28;20043;-76
2022/02/01 05:10:38;;;;;;;27.58;14.93;;;;;;;2.21;86.22;100317.09;5071894;28;20114;-76
2022/02/01 05:13:53;;;;;;;33.38;15.13;;;;;;;2.30;86.65;100319.00;5072908;28;20036;-75
2022/02/01 05:16:01;;;;;;;34.38;16.45;;;;;;;2.29;86.61;100322.47;5072635;28;20044;-75
2022/02/01 05:18:29;;;;;;;28.20;15.45;;;;;;;2.32;85.92;100317.34;5073098;28;20063;-76
2022/02/01 05:21:07;;;;;;;27.10;14.60;;;;;;;2.28;86.33;100312.88;5055006;28;20040;-75
2022/02/01 05:23:32;;;;;;;32.13;15.70;;;;;;;2.28;86.48;100320.69;5070759;28;20033;-75
2022/02/01 05:25:59;;;;;;;26.15;15.60;;;;;;;2.33;85.94;100316.47;5071914;28;20051;-75
2022/02/01 05:28:24;;;;;;;29.20;15.75;;;;;;;2.30;86.07;100322.50;5072283;28;20044;-76
2022/02/01 05:30:50;;;;;;;30.63;16.95;;;;;;;2.26;86.20;100317.19;5072174;28;20439;-79
2022/02/01 05:33:15;;;;;;;34.33;16.20;;;;;;;2.17;86.32;100310.94;5072692;28;20506;-76
2022/02/01 05:35:40;;;;;;;33.22;17.08;;;;;;;2.06;86.66;100320.19;5072268;28;20440;-76
2022/02/01 05:38:06;;;;;;;33.70;16.85;;;;;;;2.02;87.01;100320.97;5072225;28;20435;-75
2022/02/01 05:40:31;;;;;;;33.20;17.40;;;;;;;1.98;86.92;100326.91;5069536;28;20028;-75
2022/02/01 05:43:11;;;;;;;34.08;17.52;;;;;;;2.02;87.20;100330.47;5072393;28;20055;-75
2022/02/01 05:45:41;;;;;;;31.90;16.70;;;;;;;1.98;87.57;100325.19;5071312;28;20043;-75
2022/02/01 05:48:09;;;;;;;35.83;17.70;;;;;;;2.01;87.72;100329.59;5072080;28;20048;-75
2022/02/01 05:50:35;;;;;;;31.02;17.20;;;;;;;2.05;87.53;100326.25;5071495;28;20041;-75
2022/02/01 05:53:00;;;;;;;34.40;17.35;;;;;;;2.08;87.47;100326.31;5070190;28;20036;-75
2022/02/01 05:55:26;;;;;;;31.65;17.15;;;;;;;2.13;87.22;100327.31;5071234;28;20569;-75
2022/02/01 05:57:53;;;;;;;29.13;17.60;;;;;;;2.19;86.43;100322.25;5069166;28;20514;-75
2022/02/01 06:00:19;;;;;;;28.98;14.68;;;;;;;2.21;86.07;100332.69;5071421;28;20036;-75
2022/02/01 06:02:46;;;;;;;30.55;16.00;;;;;;;2.26;86.03;100319.81;5071649;28;20492;-75
2022/02/01 06:05:12;;;;;;;31.08;15.73;;;;;;;2.36;85.78;100337.41;5071328;28;20040;-75
2022/02/01 06:07:37;;;;;;;25.52;13.90;;;;;;;2.36;85.41;100333.06;5071264;28;20040;-75
2022/02/01 06:10:02;;;;;;;27.30;13.93;;;;;;;2.41;84.88;100330.56;5070439;28;20047;-75
2022/02/01 06:12:27;;;;;;;21.75;12.90;;;;;;;2.40;84.62;100339.22;5071444;28;20215;-75
2022/02/01 06:14:53;;;;;;;26.02;13.20;;;;;;;2.38;84.53;100343.50;5070724;28;20033;-75
2022/02/01 06:17:18;;;;;;;29.23;15.20;;;;;;;2.36;84.33;100342.63;5071663;28;20117;-75
2022/02/01 06:19:43;;;;;;;27.30;14.45;;;;;;;2.33;84.68;100345.13;5052672;28;20507;-75
2022/02/01 06:22:09;;;;;;;22.27;12.95;;;;;;;2.37;84.11;100352.19;5071494;28;20041;-76
2022/02/01 06:24:35;;;;;;;21.95;12.23;;;;;;;2.39;84.10;100356.59;5071274;28;20043;-76
2022/02/01 06:27:00;;;;;;;22.85;12.38;;;;;;;2.32;84.13;100354.66;5053617;28;20028;-76
2022/02/01 06:29:26;;;;;;;24.20;13.32;;;;;;;2.28;84.47;100360.66;5071549;28;20127;-75
2022/02/01 06:31:51;;;;;;;23.13;12.88;;;;;;;2.31;85.21;100357.25;5071331;28;20047;-75
2022/02/01 06:34:16;;;;;;;25.92;13.65;;;;;;;2.30;85.18;100352.88;5053260;28;20028;-76
2022/02/01 06:36:42;;;;;;;25.63;12.43;;;;;;;2.23;85.78;100358.75;5052607;28;20580;-76
2022/02/01 06:39:08;;;;;;;24.20;12.77;;;;;;;2.13;85.53;100366.34;5067484;28;20041;-75
2022/02/01 06:41:35;;;;;;;26.17;13.93;;;;;;;1.95;87.15;100368.50;5072394;28;20044;-75
2022/02/01 06:44:05;;;;;;;24.88;13.75;;;;;;;1.81;87.49;100377.63;5071223;28;20072;-75
2022/02/01 06:46:30;;;;;;;25.42;14.75;;;;;;;1.68;88.68;100373.84;5067223;28;20029;-75
2022/02/01 06:48:55;;;;;;;29.25;14.10;;;;;;;1.59;89.32;100384.88;5071247;28;20039;-75
2022/02/01 06:51:22;;;;;;;31.00;14.60;;;;;;;1.48;89.80;100386.28;5071176;28;20504;-75
2022/02/01 06:53:48;;;;;;;29.20;14.55;;;;;;;1.34;90.90;100379.81;5071242;28;20040;-76
2022/02/01 06:56:19;;;;;;;25.58;13.13;;;;;;;1.26;92.01;100377.88;5070548;28;20519;-76
2022/02/01 06:58:46;;;;;;;26.67;13.80;;;;;;;1.30;91.77;100379.72;5071251;28;20040;-76
2022/02/01 07:01:11;;;;;;;35.37;15.03;;;;;;;1.27;91.84;100369.25;5070917;28;20447;-76
2022/02/01 07:03:37;;;;;;;26.98;14.13;;;;;;;1.24;92.40;100382.16;5049084;28;20039;-76
2022/02/01 07:06:05;;;;;;;21.35;12.70;;;;;;;1.25;92.08;100378.72;5068721;28;20074;-75
2022/02/01 07:08:31;;;;;;;28.35;13.77;;;;;;;1.22;92.63;100381.22;5060417;28;20052;-75
2022/02/01 07:10:57;;;;;;;31.27;14.63;;;;;;;1.20;93.58;100393.28;5070039;28;20044;-75
2022/02/01 07:13:22;;;;;;;26.27;14.43;;;;;;;1.24;93.29;100379.56;5071010;28;20063;-75
2022/02/01 07:15:47;;;;;;;23.77;13.93;;;;;;;1.23;93.54;100383.00;5070298;28;20098;-74
2022/02/01 07:18:13;;;;;;;20.83;11.95;;;;;;;1.31;93.14;100385.84;5070436;28;20048;-75
2022/02/01 07:20:38;;;;;;;23.73;12.95;;;;;;;1.26;93.81;100385.69;5070904;28;20040;-75
2022/02/01 07:23:05;;;;;;;21.27;12.87;;;;;;;1.30;93.64;100384.06;5071410;28;20040;-75
2022/02/01 07:25:32;;;;;;;23.42;13.25;;;;;;;1.34;93.85;100387.59;5070599;28;20107;-75
2022/02/01 07:28:02;;;;;;;22.37;13.27;;;;;;;1.40;92.74;100382.59;5050966;28;20036;-75
2022/02/01 07:30:27;;;;;;;23.73;13.25;;;;;;;1.41;93.26;100387.84;5069192;28;20513;-75
2022/02/01 07:32:58;;;;;;;26.97;14.43;;;;;;;1.45;92.95;100379.28;5070168;28;20028;-74
2022/02/01 07:35:25;;;;;;;23.50;11.93;;;;;;;1.48;92.77;100373.28;5069882;28;20034;-75
2022/02/01 07:37:52;;;;;;;25.40;12.70;;;;;;;1.55;92.99;100375.25;5070702;28;20052;-74
2022/02/01 07:40:18;;;;;;;22.40;12.40;;;;;;;1.60;92.37;100363.25;5069318;28;20040;-74
2022/02/01 07:42:43;;;;;;;25.27;12.60;;;;;;;1.60;92.33;100363.25;5068584;28;20043;-75
2022/02/01 07:45:10;;;;;;;21.63;11.88;;;;;;;1.63;91.97;100362.44;5052273;28;20044;-75
2022/02/01 07:47:36;;;;;;;21.77;11.90;;;;;;;1.62;91.68;100358.94;5069760;28;20060;-75
2022/02/01 07:50:02;;;;;;;24.55;13.32;;;;;;;1.70;91.98;100360.06;5073544;28;20074;-75
2022/02/01 07:52:27;;;;;;;26.98;12.57;;;;;;;1.77;91.49;100366.28;5056371;28;20040;-75
2022/02/01 07:54:53;;;;;;;22.10;11.88;;;;;;;1.91;90.61;100364.03;5073812;28;20575;-75
2022/02/01 07:57:18;;;;;;;29.20;13.38;;;;;;;1.90;90.78;100362.28;5074535;28;20033;-75
2022/02/01 07:59:43;;;;;;;25.92;12.55;;;;;;;1.94;90.29;100361.53;5074283;28;20393;-75
2022/02/01 08:02:18;;;;;;;26.40;12.50;;;;;;;2.01;90.27;100350.41;5073940;28;20119;-75
2022/02/01 08:04:44;;;;;;;26.20;12.73;;;;;;;2.02;90.19;100357.41;5073838;28;20033;-75
2022/02/01 08:07:09;;;;;;;28.85;13.10;;;;;;;2.04;90.34;100355.69;5074255;28;20545;-75
2022/02/01 08:09:38;;;;;;;30.63;13.68;;;;;;;2.06;91.06;100364.44;5070376;28;20089;-75
2022/02/01 08:12:13;;;;;;;25.48;12.77;;;;;;;2.10;90.49;100360.22;5074020;28;20377;-75
2022/02/01 08:20:03;;;;;;;41.67;12.57;;;;;;;2.15;90.01;100369.00;5073942;28;20036;-75
2022/02/01 08:24:54;;;;;;;21.33;11.52;;;;;;;2.13;90.03;100358.56;5074654;28;20407;-75
2022/02/01 08:27:20;;;;;;;24.77;11.20;;;;;;;2.22;90.02;100376.13;5073741;28;20041;-75
2022/02/01 08:29:45;;;;;;;25.50;10.68;;;;;;;2.26;89.48;100377.09;5055802;28;20048;-75
2022/02/01 08:32:11;;;;;;;17.52;10.65;;;;;;;2.33;89.42;100386.78;5054765;28;20041;-75
2022/02/01 08:34:36;;;;;;;22.48;10.27;;;;;;;2.36;89.73;100392.09;5073502;28;20037;-75
2022/02/01 08:37:01;;;;;;;24.88;12.60;;;;;;;2.43;89.81;100383.56;5068834;28;20086;-75
2022/02/01 08:39:27;;;;;;;24.17;10.18;;;;;;;2.47;89.21;100382.81;5069708;28;20029;-75
2022/02/01 08:41:52;;;;;;;27.08;10.45;;;;;;;2.51;89.12;100384.63;5073346;28;20503;-75
2022/02/01 08:44:24;;;;;;;23.88;10.30;;;;;;;2.57;88.67;100382.19;5057973;28;20522;-75
2022/02/01 08:46:49;;;;;;;24.27;11.25;;;;;;;2.57;88.86;100390.00;5073791;28;20024;-75
2022/02/01 08:49:14;;;;;;;19.88;9.73;;;;;;;2.63;88.14;100389.28;5073337;28;20380;-74
2022/02/01 08:51:43;;;;;;;20.58;9.25;;;;;;;2.72;88.12;100379.06;5073342;28;20040;-75
2022/02/01 08:54:16;;;;;;;20.38;8.43;;;;;;;2.74;87.38;100377.38;5073075;28;20040;-74
2022/02/01 08:59:26;;;;;;;20.08;8.57;;;;;;;2.79;87.68;100380.09;5072265;28;20064;-75
2022/02/01 09:01:53;;;;;;;17.73;7.72;;;;;;;2.82;87.10;100380.16;5072498;28;20447;-74
2022/02/01 09:04:18;;;;;;;16.05;7.38;;;;;;;2.88;87.00;100375.06;5072857;28;20032;-75
2022/02/01 09:06:43;;;;;;;31.92;8.77;;;;;;;2.93;87.14;100376.06;5055137;28;20115;-75
2022/02/01 09:09:09;;;;;;;16.10;6.97;;;;;;;3.02;86.98;100378.88;5069298;28;20048;-75
2022/02/01 09:11:34;;;;;;;26.25;6.78;;;;;;;3.05;86.36;100383.28;5073056;28;20037;-74
2022/02/01 09:13:59;;;;;;;19.75;6.82;;;;;;;3.08;86.39;100367.69;5072614;28;20035;-75
2022/02/01 09:16:25;;;;;;;21.38;6.03;;;;;;;3.11;85.37;100361.66;5072460;28;20045;-74
2022/02/01 09:18:50;;;;;;;16.67;5.47;;;;;;;3.12;85.24;100359.09;5054859;28;20090;-75
2022/02/01 09:21:16;;;;;;;20.05;6.00;;;;;;;3.15;85.18;100359.16;5072779;28;20037;-75
2022/02/01 09:23:41;;;;;;;17.23;4.50;;;;;;;3.23;84.67;100341.06;5053550;28;20051;-75
2022/02/01 09:26:07;;;;;;;23.80;5.13;;;;;;;3.33;84.46;100335.19;5072459;28;20039;-75
2022/02/01 09:28:33;;;;;;;14.63;3.90;;;;;;;3.31;84.10;100339.50;5072695;28;20040;-75
2022/02/01 09:30:58;;;;;;;15.63;4.28;;;;;;;3.33;83.54;100335.19;5072350;28;20044;-75
2022/02/01 09:33:24;;;;;;;16.58;3.58;;;;;;;3.39;82.94;100311.81;5072483;28;20036;-75
2022/02/01 09:35:49;;;;;;;21.95;4.45;;;;;;;3.51;83.02;100308.56;5072179;28;20452;-75
2022/02/01 09:38:17;;;;;;;20.30;4.60;;;;;;;3.63;83.75;100306.19;5072397;28;20044;-75
2022/02/01 09:40:43;;;;;;;20.27;5.13;;;;;;;3.72;83.05;100297.63;5068534;28;20115;-75
2022/02/01 09:43:08;;;;;;;18.33;6.22;;;;;;;3.48;82.65;100291.13;5072427;28;20131;-75
2022/02/01 09:45:36;;;;;;;19.50;5.55;;;;;;;3.53;82.86;100287.72;5071725;28;20029;-75
2022/02/01 09:48:03;;;;;;;14.77;5.18;;;;;;;3.72;82.48;100295.00;5072338;28;20154;-75
2022/02/01 09:50:28;;;;;;;23.65;6.45;;;;;;;3.79;81.91;100296.03;5054115;28;20056;-75
2022/02/01 09:52:53;;;;;;;17.85;5.82;;;;;;;3.71;82.33;100285.44;5072102;28;20063;-75
2022/02/01 09:55:21;;;;;;;18.17;6.20;;;;;;;3.79;82.27;100278.63;5071334;28;20451;-75
2022/02/01 09:57:54;;;;;;;20.13;5.85;;;;;;;3.75;82.26;100284.66;5072245;28;20060;-75
2022/02/01 10:00:22;;;;;;;;;;;;;;;3.70;82.22;100289.78;5084727;28;20082;-75
2022/02/01 10:02:54;;;;;;;16.98;5.93;;;;;;;3.80;81.92;100285.63;5071992;28;20300;-75
2022/02/01 10:05:20;;;;;;;21.88;6.13;;;;;;;3.72;81.68;100275.03;5071443;28;20051;-75
2022/02/01 10:07:58;;;;;;;14.20;5.18;;;;;;;3.79;81.82;100270.78;5071245;28;20492;-75
2022/02/01 10:10:26;;;;;;;12.68;4.75;;;;;;;3.71;81.64;100268.03;5069700;28;20039;-75
2022/02/01 10:13:15;;;;;;;17.58;5.88;;;;;;;3.66;82.23;100266.22;5069765;28;20396;-75
2022/02/01 10:15:55;;;;;;;15.27;4.93;;;;;;;3.60;83.07;100258.28;5067796;28;20814;-75
2022/02/01 10:18:30;;;;;;;19.73;4.85;;;;;;;3.55;83.38;100265.16;5071706;28;20040;-75
2022/02/01 10:21:10;;;;;;;16.38;4.07;;;;;;;3.52;84.45;100252.94;5053370;28;20040;-75
2022/02/01 10:23:38;;;;;;;21.48;5.00;;;;;;;3.56;83.92;100240.81;5063882;28;20097;-75
2022/02/01 10:26:06;;;;;;;16.38;4.22;;;;;;;3.63;83.38;100232.25;5053477;28;20031;-75
2022/02/01 10:29:07;;;;;;;16.92;3.67;;;;;;;3.72;83.67;100220.22;5069023;28;20037;-75
2022/02/01 10:32:10;;;;;;;21.85;4.07;;;;;;;3.69;82.32;100209.75;5069128;28;20032;-75
2022/02/01 10:37:18;;;;;;;13.65;3.60;;;;;;;3.85;81.47;100223.91;5066432;28;20039;-75
2022/02/01 10:39:44;;;;;;;18.00;3.53;;;;;;;3.84;81.47;100211.69;5050483;28;20111;-75
2022/02/01 10:42:13;;;;;;;14.75;3.13;;;;;;;4.07;81.67;100205.97;5070907;28;20071;-75
2022/02/01 10:44:47;;;;;;;17.27;3.58;;;;;;;4.07;80.60;100195.53;5070905;28;20051;-75
2022/02/01 10:47:16;;;;;;;17.50;3.83;;;;;;;4.14;79.79;100197.38;5067658;28;20587;-75
2022/02/01 10:49:41;;;;;;;13.93;3.25;;;;;;;4.17;79.87;100193.06;5053238;28;20051;-74
2022/02/01 10:52:11;;;;;;;21.13;3.92;;;;;;;4.28;79.36;100193.22;5071357;28;20056;-75
2022/02/01 10:54:38;;;;;;;19.08;3.10;;;;;;;4.43;79.51;100187.31;5067096;28;20037;-75
2022/02/01 10:57:06;;;;;;;16.80;3.50;;;;;;;4.45;78.02;100189.94;5070918;28;20046;-75
2022/02/01 10:59:32;;;;;;;24.42;3.65;;;;;;;4.48;78.11;100171.69;5053149;28;20125;-75
2022/02/01 11:02:00;;;;;;;20.45;3.35;;;;;;;4.49;76.67;100156.03;5070512;28;20461;-75
2022/02/01 11:04:27;;;;;;;18.13;3.13;;;;;;;4.47;77.07;100156.88;5072177;28;20119;-75
2022/02/01 11:06:53;;;;;;;16.27;3.70;;;;;;;4.48;77.52;100153.38;5053075;28;20033;-75
2022/02/01 11:09:21;;;;;;;21.27;4.57;;;;;;;4.57;77.07;100140.44;5048710;28;20041;-75
2022/02/01 11:11:54;;;;;;;16.10;2.97;;;;;;;4.53;76.66;100142.16;5071142;28;20040;-76
2022/02/01 11:14:21;;;;;;;14.15;3.03;;;;;;;4.53;77.15;100138.66;5053237;28;20047;-75
2022/02/01 11:16:46;;;;;;;17.83;3.13;;;;;;;4.46;76.28;100134.22;5049310;28;20504;-75
2022/02/01 11:19:11;;;;;;;18.38;3.20;;;;;;;4.39;76.88;100117.59;5070709;28;20149;-75
2022/02/01 11:21:46;;;;;;;19.77;3.70;;;;;;;4.40;76.60;100114.09;5050942;28;20041;-75
2022/02/01 11:24:35;;;;;;;20.13;3.08;;;;;;;4.40;76.78;100116.72;5073030;28;20029;-75
2022/02/01 11:27:16;;;;;;;16.67;3.15;;;;;;;4.41;77.64;100110.66;5069272;28;20044;-75
2022/02/01 11:32:34;;;;;;;18.52;3.13;;;;;;;4.52;76.94;100097.69;5073414;28;20454;-75
2022/02/01 11:35:05;;;;;;;13.43;3.72;;;;;;;4.64;76.38;100102.19;5055131;28;20032;-76
2022/02/01 11:37:30;;;;;;;14.90;2.30;;;;;;;4.52;76.35;100092.47;5072981;28;20472;-75
2022/02/01 11:39:56;;;;;;;12.82;2.63;;;;;;;4.56;75.61;100094.28;5058550;28;20158;-76
2022/02/01 11:42:31;;;;;;;13.77;2.63;;;;;;;4.69;74.88;100090.94;5074064;28;20044;-75
2022/02/01 11:45:05;;;;;;;13.40;3.22;;;;;;;4.75;74.72;100077.91;5053669;28;20038;-76
2022/02/01 11:47:36;;;;;;;15.15;2.85;;;;;;;4.67;74.30;100076.97;5074252;28;20032;-75
2022/02/01 11:50:07;;;;;;;20.02;2.95;;;;;;;4.78;74.90;100070.09;5074570;28;20043;-75
2022/02/01 11:52:47;;;;;;;19.67;3.03;;;;;;;4.76;73.60;100055.25;5074479;28;20123;-75
2022/02/01 11:55:15;;;;;;;15.48;2.35;;;;;;;4.84;73.81;100059.69;5072042;28;20036;-75
2022/02/01 11:57:43;;;;;;;13.48;2.55;;;;;;;4.91;73.65;100044.06;5074199;28;20051;-75
2022/02/01 12:00:22;;;;;;;13.13;2.58;;;;;;;4.92;73.59;100027.50;5070841;28;20039;-75
2022/02/01 12:02:55;;;;;;;11.30;2.22;;;;;;;5.04;73.44;100030.25;5074365;28;20036;-75
2022/02/01 12:05:29;;;;;;;18.70;2.53;;;;;;;5.15;73.29;100006.78;5071220;28;20119;-75
2022/02/01 12:08:12;;;;;;;13.40;3.05;;;;;;;5.15;73.24;99997.19;5074302;28;20578;-75
2022/02/01 12:10:39;;;;;;;;;;;;;;;5.08;71.37;100011.06;5069460;28;20047;-75
2022/02/01 12:13:06;;;;;;;14.88;2.65;;;;;;;4.97;72.25;99994.44;5074189;28;20272;-75
2022/02/01 12:15:34;;;;;;;16.88;2.92;;;;;;;4.97;72.95;99971.75;5073677;28;20036;-75
2022/02/01 12:18:08;;;;;;;14.30;2.40;;;;;;;4.87;72.53;99963.84;5073787;28;20063;-75
2022/02/01 12:20:38;;;;;;;16.02;2.53;;;;;;;4.97;73.13;99960.44;5073901;28;20037;-75
2022/02/01 12:23:25;;;;;;;16.75;2.50;;;;;;;4.88;72.55;99949.91;5073995;28;20037;-75
2022/02/01 12:25:51;;;;;;;9.48;2.00;;;;;;;4.93;72.93;99946.47;5071206;28;20472;-75
2022/02/01 12:28:28;;;;;;;16.92;2.40;;;;;;;4.92;73.03;99946.44;5055920;28;20443;-76
2022/02/01 12:31:06;;;;;;;16.13;3.20;;;;;;;4.97;73.00;99924.69;5070605;28;20037;-75
2022/02/01 12:33:32;;;;;;;12.70;2.38;;;;;;;4.96;72.98;99938.66;5073020;28;20032;-75
2022/02/01 12:35:57;;;;;;;16.45;3.10;;;;;;;4.99;73.23;99920.34;5068899;28;20040;-75
2022/02/01 12:38:27;;;;;;;15.95;2.55;;;;;;;4.95;72.96;99925.53;5073830;28;20090;-75
2022/02/01 12:41:12;;;;;;;13.35;3.22;;;;;;;5.02;73.39;99903.81;5072052;28;20416;-76
2022/02/01 12:43:55;;;;;;;15.52;3.45;;;;;;;5.00;71.99;99903.81;5071914;28;20128;-75
2022/02/01 12:46:40;;;;;;;9.32;1.83;;;;;;;5.04;72.84;99895.09;5071449;28;20070;-75
2022/02/01 12:49:05;;;;;;;15.57;2.70;;;;;;;5.06;72.51;99884.66;5071143;28;20045;-76
2022/02/01 12:51:38;;;;;;;13.55;2.70;;;;;;;5.05;72.89;99865.47;5055137;28;20044;-75
2022/02/01 12:54:04;;;;;;;11.27;2.50;;;;;;;5.05;73.02;99854.13;5069175;28;20035;-74
2022/02/01 12:56:29;;;;;;;10.98;1.80;;;;;;;5.13;71.93;99857.66;5072775;28;20036;-75
2022/02/01 12:59:00;;;;;;;11.85;2.83;;;;;;;5.00;72.09;99848.00;5072985;28;20059;-75